sensor_id;sensor_type;location;lat;lon;timestamp;temperature;humidity
2995;DHT22;35277;49.890;8.222;2024-02-21T00:01:54;20.90;65.60
2995;DHT22;35277;49.890;8.222;2024-02-21T00:04:23;20.90;65.70
2995;DHT22;35277;49.890;8.222;2024-02-21T00:06:51;20.90;65.60
2995;DHT22;35277;49.890;8.222;2024-02-21T00:09:19;20.90;65.60
2995;DHT22;35277;49.890;8.222;2024-02-21T00:11:46;20.90;65.60
2995;DHT22;35277;49.890;8.222;2024-02-21T00:14:14;20.90;65.60
2995;DHT22;35277;49.890;8.222;2024-02-21T00:16:42;20.90;65.60
2995;DHT22;35277;49.890;8.222;2024-02-21T00:19:10;20.90;65.60
2995;DHT22;35277;49.890;8.222;2024-02-21T00:21:39;20.90;65.60
2995;DHT22;35277;49.890;8.222;2024-02-21T00:24:07;20.90;65.70
2995;DHT22;35277;49.890;8.222;2024-02-21T00:26:35;20.90;65.60
2995;DHT22;35277;49.890;8.222;2024-02-21T00:29:03;20.90;65.70
2995;DHT22;35277;49.890;8.222;2024-02-21T00:31:34;20.90;65.70
2995;DHT22;35277;49.890;8.222;2024-02-21T00:34:02;20.90;65.70
2995;DHT22;35277;49.890;8.222;2024-02-21T00:36:30;20.90;65.70
2995;DHT22;35277;49.890;8.222;2024-02-21T00:38:59;20.90;65.70
2995;DHT22;35277;49.890;8.222;2024-02-21T00:41:27;20.90;65.70
2995;DHT22;35277;49.890;8.222;2024-02-21T00:43:54;20.90;65.70
2995;DHT22;35277;49.890;8.222;2024-02-21T00:46:22;20.90;65.70
2995;DHT22;35277;49.890;8.222;2024-02-21T00:48:50;20.90;65.70
2995;DHT22;35277;49.890;8.222;2024-02-21T00:51:18;20.90;65.70
2995;DHT22;35277;49.890;8.222;2024-02-21T00:53:46;20.90;65.80
2995;DHT22;35277;49.890;8.222;2024-02-21T00:56:16;20.90;65.70
2995;DHT22;35277;49.890;8.222;2024-02-21T00:58:44;20.90;65.70
2995;DHT22;35277;49.890;8.222;2024-02-21T01:01:11;20.90;65.70
2995;DHT22;35277;49.890;8.222;2024-02-21T01:03:40;20.90;65.70
2995;DHT22;35277;49.890;8.222;2024-02-21T01:06:08;20.90;65.80
2995;DHT22;35277;49.890;8.222;2024-02-21T01:08:36;20.90;65.80
2995;DHT22;35277;49.890;8.222;2024-02-21T01:11:03;20.90;65.80
2995;DHT22;35277;49.890;8.222;2024-02-21T01:13:33;20.90;65.80
2995;DHT22;35277;49.890;8.222;2024-02-21T01:16:00;20.90;65.80
2995;DHT22;35277;49.890;8.222;2024-02-21T01:18:28;20.90;65.80
2995;DHT22;35277;49.890;8.222;2024-02-21T01:20:56;20.90;65.80
2995;DHT22;35277;49.890;8.222;2024-02-21T01:23:24;20.90;65.80
2995;DHT22;35277;49.890;8.222;2024-02-21T01:25:52;20.90;65.80
2995;DHT22;35277;49.890;8.222;2024-02-21T01:28:20;20.90;65.80
2995;DHT22;35277;49.890;8.222;2024-02-21T01:30:50;20.90;65.90
2995;DHT22;35277;49.890;8.222;2024-02-21T01:33:18;20.90;65.80
2995;DHT22;35277;49.890;8.222;2024-02-21T01:35:46;20.90;65.80
2995;DHT22;35277;49.890;8.222;2024-02-21T01:38:14;20.90;65.80
2995;DHT22;35277;49.890;8.222;2024-02-21T01:40:42;20.90;65.80
2995;DHT22;35277;49.890;8.222;2024-02-21T01:43:17;20.90;65.80
2995;DHT22;35277;49.890;8.222;2024-02-21T01:45:50;20.90;65.80
2995;DHT22;35277;49.890;8.222;2024-02-21T01:48:20;20.90;65.90
2995;DHT22;35277;49.890;8.222;2024-02-21T01:50:49;20.90;65.90
2995;DHT22;35277;49.890;8.222;2024-02-21T01:53:21;20.90;65.80
2995;DHT22;35277;49.890;8.222;2024-02-21T01:55:49;20.90;65.80
2995;DHT22;35277;49.890;8.222;2024-02-21T01:58:18;20.90;66.70
2995;DHT22;35277;49.890;8.222;2024-02-21T02:00:47;20.80;65.80
2995;DHT22;35277;49.890;8.222;2024-02-21T02:03:17;20.80;65.70
2995;DHT22;35277;49.890;8.222;2024-02-21T02:05:45;20.90;65.90
2995;DHT22;35277;49.890;8.222;2024-02-21T02:08:14;20.80;65.80
2995;DHT22;35277;49.890;8.222;2024-02-21T02:10:42;20.80;65.80
2995;DHT22;35277;49.890;8.222;2024-02-21T02:13:10;20.80;65.80
2995;DHT22;35277;49.890;8.222;2024-02-21T02:15:39;20.80;65.80
2995;DHT22;35277;49.890;8.222;2024-02-21T02:18:06;20.80;65.80
2995;DHT22;35277;49.890;8.222;2024-02-21T02:20:36;20.90;65.90
2995;DHT22;35277;49.890;8.222;2024-02-21T02:23:10;20.80;65.80
2995;DHT22;35277;49.890;8.222;2024-02-21T02:25:39;20.80;65.80
2995;DHT22;35277;49.890;8.222;2024-02-21T02:28:08;20.80;65.80
2995;DHT22;35277;49.890;8.222;2024-02-21T02:30:36;20.80;65.80
2995;DHT22;35277;49.890;8.222;2024-02-21T02:33:04;20.90;65.90
2995;DHT22;35277;49.890;8.222;2024-02-21T02:35:32;20.80;65.90
2995;DHT22;35277;49.890;8.222;2024-02-21T02:38:02;20.80;65.80
2995;DHT22;35277;49.890;8.222;2024-02-21T02:40:30;20.80;65.90
2995;DHT22;35277;49.890;8.222;2024-02-21T02:42:59;20.80;65.80
2995;DHT22;35277;49.890;8.222;2024-02-21T02:45:27;20.80;65.90
2995;DHT22;35277;49.890;8.222;2024-02-21T02:47:55;20.80;65.90
2995;DHT22;35277;49.890;8.222;2024-02-21T02:50:24;20.80;65.90
2995;DHT22;35277;49.890;8.222;2024-02-21T02:52:52;20.80;65.90
2995;DHT22;35277;49.890;8.222;2024-02-21T02:55:20;20.80;65.90
2995;DHT22;35277;49.890;8.222;2024-02-21T02:57:48;20.80;65.90
2995;DHT22;35277;49.890;8.222;2024-02-21T03:00:18;20.80;65.90
2995;DHT22;35277;49.890;8.222;2024-02-21T03:02:46;20.80;65.90
2995;DHT22;35277;49.890;8.222;2024-02-21T03:05:17;20.80;65.90
2995;DHT22;35277;49.890;8.222;2024-02-21T03:07:46;20.80;65.90
2995;DHT22;35277;49.890;8.222;2024-02-21T03:10:15;20.80;65.90
2995;DHT22;35277;49.890;8.222;2024-02-21T03:12:44;20.80;65.90
2995;DHT22;35277;49.890;8.222;2024-02-21T03:15:12;20.80;65.90
2995;DHT22;35277;49.890;8.222;2024-02-21T03:17:42;20.80;65.90
2995;DHT22;35277;49.890;8.222;2024-02-21T03:20:10;20.80;65.90
2995;DHT22;35277;49.890;8.222;2024-02-21T03:22:39;20.80;65.90
2995;DHT22;35277;49.890;8.222;2024-02-21T03:25:08;20.80;65.90
2995;DHT22;35277;49.890;8.222;2024-02-21T03:27:36;20.80;65.90
2995;DHT22;35277;49.890;8.222;2024-02-21T03:30:05;20.80;65.90
2995;DHT22;35277;49.890;8.222;2024-02-21T03:32:33;20.80;65.90
2995;DHT22;35277;49.890;8.222;2024-02-21T03:35:03;20.80;66.00
2995;DHT22;35277;49.890;8.222;2024-02-21T03:37:32;20.80;65.90
2995;DHT22;35277;49.890;8.222;2024-02-21T03:39:59;20.80;65.90
2995;DHT22;35277;49.890;8.222;2024-02-21T03:42:28;20.80;65.90
2995;DHT22;35277;49.890;8.222;2024-02-21T03:44:58;20.80;66.00
2995;DHT22;35277;49.890;8.222;2024-02-21T03:47:25;20.80;66.00
2995;DHT22;35277;49.890;8.222;2024-02-21T03:49:53;20.80;65.90
2995;DHT22;35277;49.890;8.222;2024-02-21T03:52:22;20.80;66.00
2995;DHT22;35277;49.890;8.222;2024-02-21T03:54:50;20.80;66.00
2995;DHT22;35277;49.890;8.222;2024-02-21T03:57:18;20.80;66.00
2995;DHT22;35277;49.890;8.222;2024-02-21T03:59:46;20.80;66.00
2995;DHT22;35277;49.890;8.222;2024-02-21T04:02:14;20.80;66.00
2995;DHT22;35277;49.890;8.222;2024-02-21T04:04:43;20.80;66.00
2995;DHT22;35277;49.890;8.222;2024-02-21T04:07:13;20.80;66.00
2995;DHT22;35277;49.890;8.222;2024-02-21T04:09:42;20.80;66.00
2995;DHT22;35277;49.890;8.222;2024-02-21T04:12:10;20.80;66.00
2995;DHT22;35277;49.890;8.222;2024-02-21T04:14:37;20.80;66.00
2995;DHT22;35277;49.890;8.222;2024-02-21T04:17:08;20.80;66.00
2995;DHT22;35277;49.890;8.222;2024-02-21T04:19:36;20.80;66.00
2995;DHT22;35277;49.890;8.222;2024-02-21T04:22:05;20.80;66.00
2995;DHT22;35277;49.890;8.222;2024-02-21T04:24:33;20.80;66.00
2995;DHT22;35277;49.890;8.222;2024-02-21T04:27:02;20.80;66.00
2995;DHT22;35277;49.890;8.222;2024-02-21T04:29:30;20.80;66.00
2995;DHT22;35277;49.890;8.222;2024-02-21T04:31:58;20.80;66.00
2995;DHT22;35277;49.890;8.222;2024-02-21T04:34:25;20.80;66.00
2995;DHT22;35277;49.890;8.222;2024-02-21T04:36:53;20.80;66.00
2995;DHT22;35277;49.890;8.222;2024-02-21T04:39:21;20.80;66.00
2995;DHT22;35277;49.890;8.222;2024-02-21T04:41:49;20.80;66.10
2995;DHT22;35277;49.890;8.222;2024-02-21T04:44:18;20.80;66.00
2995;DHT22;35277;49.890;8.222;2024-02-21T04:46:48;20.80;66.00
2995;DHT22;35277;49.890;8.222;2024-02-21T04:49:16;20.80;66.00
2995;DHT22;35277;49.890;8.222;2024-02-21T04:51:44;20.80;66.00
2995;DHT22;35277;49.890;8.222;2024-02-21T04:54:12;20.80;66.00
2995;DHT22;35277;49.890;8.222;2024-02-21T04:56:39;20.80;66.10
2995;DHT22;35277;49.890;8.222;2024-02-21T04:59:07;20.80;66.00
2995;DHT22;35277;49.890;8.222;2024-02-21T05:01:36;20.80;66.10
2995;DHT22;35277;49.890;8.222;2024-02-21T05:04:04;20.80;66.00
2995;DHT22;35277;49.890;8.222;2024-02-21T05:06:36;20.80;66.00
2995;DHT22;35277;49.890;8.222;2024-02-21T05:09:04;20.80;66.00
2995;DHT22;35277;49.890;8.222;2024-02-21T05:11:32;20.80;66.00
2995;DHT22;35277;49.890;8.222;2024-02-21T05:14:00;20.80;66.00
2995;DHT22;35277;49.890;8.222;2024-02-21T05:16:28;20.80;66.00
2995;DHT22;35277;49.890;8.222;2024-02-21T05:18:57;20.80;66.00
2995;DHT22;35277;49.890;8.222;2024-02-21T05:21:25;20.80;66.00
2995;DHT22;35277;49.890;8.222;2024-02-21T05:23:54;20.80;66.00
2995;DHT22;35277;49.890;8.222;2024-02-21T05:26:22;20.80;66.00
2995;DHT22;35277;49.890;8.222;2024-02-21T05:28:51;20.80;65.90
2995;DHT22;35277;49.890;8.222;2024-02-21T05:31:19;20.80;65.90
2995;DHT22;35277;49.890;8.222;2024-02-21T05:33:48;20.80;66.00
2995;DHT22;35277;49.890;8.222;2024-02-21T05:36:17;20.80;65.90
2995;DHT22;35277;49.890;8.222;2024-02-21T05:38:45;20.80;65.90
2995;DHT22;35277;49.890;8.222;2024-02-21T05:41:13;20.80;65.90
2995;DHT22;35277;49.890;8.222;2024-02-21T05:43:41;20.80;65.90
2995;DHT22;35277;49.890;8.222;2024-02-21T05:46:08;20.80;65.90
2995;DHT22;35277;49.890;8.222;2024-02-21T05:48:36;20.80;65.90
2995;DHT22;35277;49.890;8.222;2024-02-21T05:51:05;20.80;65.90
2995;DHT22;35277;49.890;8.222;2024-02-21T05:53:35;20.80;65.90
2995;DHT22;35277;49.890;8.222;2024-02-21T05:56:10;20.80;65.80
2995;DHT22;35277;49.890;8.222;2024-02-21T05:58:38;20.70;65.70
2995;DHT22;35277;49.890;8.222;2024-02-21T06:01:06;20.80;65.80
2995;DHT22;35277;49.890;8.222;2024-02-21T06:03:33;20.80;65.80
2995;DHT22;35277;49.890;8.222;2024-02-21T06:06:03;20.80;65.80
2995;DHT22;35277;49.890;8.222;2024-02-21T06:08:31;20.70;65.70
2995;DHT22;35277;49.890;8.222;2024-02-21T06:11:01;20.80;65.80
2995;DHT22;35277;49.890;8.222;2024-02-21T06:13:28;20.70;65.70
2995;DHT22;35277;49.890;8.222;2024-02-21T06:15:56;20.70;65.70
2995;DHT22;35277;49.890;8.222;2024-02-21T06:18:24;20.70;65.70
2995;DHT22;35277;49.890;8.222;2024-02-21T06:20:52;20.70;65.70
2995;DHT22;35277;49.890;8.222;2024-02-21T06:23:20;20.70;65.70
2995;DHT22;35277;49.890;8.222;2024-02-21T06:25:47;20.80;65.80
2995;DHT22;35277;49.890;8.222;2024-02-21T06:28:17;20.70;65.60
2995;DHT22;35277;49.890;8.222;2024-02-21T06:30:45;20.70;65.60
2995;DHT22;35277;49.890;8.222;2024-02-21T06:33:12;20.80;65.70
2995;DHT22;35277;49.890;8.222;2024-02-21T06:35:40;20.70;65.60
2995;DHT22;35277;49.890;8.222;2024-02-21T06:38:09;20.70;65.60
2995;DHT22;35277;49.890;8.222;2024-02-21T06:40:37;20.70;65.60
2995;DHT22;35277;49.890;8.222;2024-02-21T06:43:06;20.70;65.60
2995;DHT22;35277;49.890;8.222;2024-02-21T06:45:36;20.70;65.60
2995;DHT22;35277;49.890;8.222;2024-02-21T06:48:04;20.70;65.60
2995;DHT22;35277;49.890;8.222;2024-02-21T06:50:32;20.70;65.50
2995;DHT22;35277;49.890;8.222;2024-02-21T06:52:59;20.70;65.50
2995;DHT22;35277;49.890;8.222;2024-02-21T06:55:27;20.70;65.50
2995;DHT22;35277;49.890;8.222;2024-02-21T06:57:55;20.70;65.60
2995;DHT22;35277;49.890;8.222;2024-02-21T07:00:23;20.70;65.50
2995;DHT22;35277;49.890;8.222;2024-02-21T07:02:53;20.70;65.50
2995;DHT22;35277;49.890;8.222;2024-02-21T07:05:21;20.70;65.50
2995;DHT22;35277;49.890;8.222;2024-02-21T07:07:50;20.70;65.50
2995;DHT22;35277;49.890;8.222;2024-02-21T07:10:17;20.70;65.50
2995;DHT22;35277;49.890;8.222;2024-02-21T07:12:45;20.70;65.50
2995;DHT22;35277;49.890;8.222;2024-02-21T07:15:13;20.70;65.40
2995;DHT22;35277;49.890;8.222;2024-02-21T07:17:41;20.70;65.40
2995;DHT22;35277;49.890;8.222;2024-02-21T07:20:11;20.70;65.40
2995;DHT22;35277;49.890;8.222;2024-02-21T07:22:39;20.80;65.60
2995;DHT22;35277;49.890;8.222;2024-02-21T07:25:07;20.70;65.40
2995;DHT22;35277;49.890;8.222;2024-02-21T07:27:35;20.70;65.40
2995;DHT22;35277;49.890;8.222;2024-02-21T07:30:05;20.80;65.50
2995;DHT22;35277;49.890;8.222;2024-02-21T07:32:33;20.70;66.20
2995;DHT22;35277;49.890;8.222;2024-02-21T07:35:01;20.70;65.40
2995;DHT22;35277;49.890;8.222;2024-02-21T07:37:30;20.70;65.40
2995;DHT22;35277;49.890;8.222;2024-02-21T07:39:59;20.70;65.40
2995;DHT22;35277;49.890;8.222;2024-02-21T07:42:27;20.70;65.40
2995;DHT22;35277;49.890;8.222;2024-02-21T07:44:55;20.70;65.40
2995;DHT22;35277;49.890;8.222;2024-02-21T07:47:23;20.70;65.50
2995;DHT22;35277;49.890;8.222;2024-02-21T07:49:51;20.80;65.50
2995;DHT22;35277;49.890;8.222;2024-02-21T07:52:19;20.80;65.50
2995;DHT22;35277;49.890;8.222;2024-02-21T07:54:48;20.70;65.40
2995;DHT22;35277;49.890;8.222;2024-02-21T07:57:16;20.80;65.40
2995;DHT22;35277;49.890;8.222;2024-02-21T07:59:44;20.80;65.40
2995;DHT22;35277;49.890;8.222;2024-02-21T08:02:13;20.70;65.30
2995;DHT22;35277;49.890;8.222;2024-02-21T08:04:42;20.70;65.30
2995;DHT22;35277;49.890;8.222;2024-02-21T08:07:10;20.70;65.30
2995;DHT22;35277;49.890;8.222;2024-02-21T08:09:39;20.70;65.30
2995;DHT22;35277;49.890;8.222;2024-02-21T08:12:09;20.80;65.40
2995;DHT22;35277;49.890;8.222;2024-02-21T08:14:36;20.80;65.40
2995;DHT22;35277;49.890;8.222;2024-02-21T08:17:04;20.80;65.40
2995;DHT22;35277;49.890;8.222;2024-02-21T08:19:32;20.80;65.40
2995;DHT22;35277;49.890;8.222;2024-02-21T08:22:00;20.80;65.40
2995;DHT22;35277;49.890;8.222;2024-02-21T08:24:29;20.80;65.40
2995;DHT22;35277;49.890;8.222;2024-02-21T08:26:57;20.80;65.40
2995;DHT22;35277;49.890;8.222;2024-02-21T08:29:26;20.80;65.40
2995;DHT22;35277;49.890;8.222;2024-02-21T08:31:54;20.80;65.40
2995;DHT22;35277;49.890;8.222;2024-02-21T08:34:22;20.80;65.40
2995;DHT22;35277;49.890;8.222;2024-02-21T08:36:50;20.80;65.40
2995;DHT22;35277;49.890;8.222;2024-02-21T08:39:18;20.80;65.30
2995;DHT22;35277;49.890;8.222;2024-02-21T08:41:45;20.80;65.40
2995;DHT22;35277;49.890;8.222;2024-02-21T08:44:23;20.80;65.30
2995;DHT22;35277;49.890;8.222;2024-02-21T08:46:53;20.80;65.30
2995;DHT22;35277;49.890;8.222;2024-02-21T08:49:22;20.80;65.40
2995;DHT22;35277;49.890;8.222;2024-02-21T08:51:50;20.80;65.40
2995;DHT22;35277;49.890;8.222;2024-02-21T08:54:18;20.80;65.30
2995;DHT22;35277;49.890;8.222;2024-02-21T08:56:46;20.80;65.30
2995;DHT22;35277;49.890;8.222;2024-02-21T08:59:14;20.80;65.30
2995;DHT22;35277;49.890;8.222;2024-02-21T09:01:42;20.80;65.30
2995;DHT22;35277;49.890;8.222;2024-02-21T09:04:11;20.80;65.30
2995;DHT22;35277;49.890;8.222;2024-02-21T09:06:39;20.80;65.30
2995;DHT22;35277;49.890;8.222;2024-02-21T09:09:09;20.80;65.30
2995;DHT22;35277;49.890;8.222;2024-02-21T09:11:37;20.80;65.30
2995;DHT22;35277;49.890;8.222;2024-02-21T09:14:05;20.80;65.30
2995;DHT22;35277;49.890;8.222;2024-02-21T09:16:33;20.80;65.30
2995;DHT22;35277;49.890;8.222;2024-02-21T09:19:01;20.80;65.30
2995;DHT22;35277;49.890;8.222;2024-02-21T09:21:30;20.80;65.30
2995;DHT22;35277;49.890;8.222;2024-02-21T09:23:58;20.80;65.30
2995;DHT22;35277;49.890;8.222;2024-02-21T09:26:26;20.80;65.30
2995;DHT22;35277;49.890;8.222;2024-02-21T09:28:54;20.80;65.30
2995;DHT22;35277;49.890;8.222;2024-02-21T09:31:22;20.80;65.30
2995;DHT22;35277;49.890;8.222;2024-02-21T09:33:50;20.80;65.30
2995;DHT22;35277;49.890;8.222;2024-02-21T09:36:18;20.80;65.30
2995;DHT22;35277;49.890;8.222;2024-02-21T09:38:47;20.80;65.40
2995;DHT22;35277;49.890;8.222;2024-02-21T09:41:16;20.80;65.30
2995;DHT22;35277;49.890;8.222;2024-02-21T09:43:51;20.80;65.30
2995;DHT22;35277;49.890;8.222;2024-02-21T09:46:24;20.80;65.40
2995;DHT22;35277;49.890;8.222;2024-02-21T09:49:02;20.90;65.50
2995;DHT22;35277;49.890;8.222;2024-02-21T09:51:33;20.90;65.50
2995;DHT22;35277;49.890;8.222;2024-02-21T09:54:04;20.90;65.50
2995;DHT22;35277;49.890;8.222;2024-02-21T09:56:42;20.90;65.50
2995;DHT22;35277;49.890;8.222;2024-02-21T09:59:12;20.90;65.50
2995;DHT22;35277;49.890;8.222;2024-02-21T10:01:40;20.90;65.40
2995;DHT22;35277;49.890;8.222;2024-02-21T10:04:08;20.90;65.50
2995;DHT22;35277;49.890;8.222;2024-02-21T10:06:36;20.90;65.40
2995;DHT22;35277;49.890;8.222;2024-02-21T10:09:07;20.90;65.40
2995;DHT22;35277;49.890;8.222;2024-02-21T10:11:35;20.90;65.50
2995;DHT22;35277;49.890;8.222;2024-02-21T10:14:04;20.90;65.50
2995;DHT22;35277;49.890;8.222;2024-02-21T10:16:33;20.90;65.40
2995;DHT22;35277;49.890;8.222;2024-02-21T10:19:01;20.90;65.40
2995;DHT22;35277;49.890;8.222;2024-02-21T10:21:30;20.90;65.40
2995;DHT22;35277;49.890;8.222;2024-02-21T10:23:58;20.90;65.40
2995;DHT22;35277;49.890;8.222;2024-02-21T10:26:27;20.90;65.40
2995;DHT22;35277;49.890;8.222;2024-02-21T10:28:56;20.90;65.40
2995;DHT22;35277;49.890;8.222;2024-02-21T10:31:25;20.90;65.40
2995;DHT22;35277;49.890;8.222;2024-02-21T10:33:54;20.90;65.40
2995;DHT22;35277;49.890;8.222;2024-02-21T10:36:23;20.90;65.40
2995;DHT22;35277;49.890;8.222;2024-02-21T10:38:52;20.90;65.40
2995;DHT22;35277;49.890;8.222;2024-02-21T10:41:21;20.90;65.40
2995;DHT22;35277;49.890;8.222;2024-02-21T10:43:52;20.90;65.40
2995;DHT22;35277;49.890;8.222;2024-02-21T10:46:23;20.90;65.40
2995;DHT22;35277;49.890;8.222;2024-02-21T10:49:01;20.90;65.40
2995;DHT22;35277;49.890;8.222;2024-02-21T10:51:33;21.00;65.50
2995;DHT22;35277;49.890;8.222;2024-02-21T10:54:11;20.90;65.40
2995;DHT22;35277;49.890;8.222;2024-02-21T10:56:41;20.90;65.30
2995;DHT22;35277;49.890;8.222;2024-02-21T10:59:11;21.00;65.40
2995;DHT22;35277;49.890;8.222;2024-02-21T11:01:40;21.00;65.50
2995;DHT22;35277;49.890;8.222;2024-02-21T11:04:11;21.00;65.40
2995;DHT22;35277;49.890;8.222;2024-02-21T11:06:40;21.00;65.50
2995;DHT22;35277;49.890;8.222;2024-02-21T11:09:10;21.00;65.40
2995;DHT22;35277;49.890;8.222;2024-02-21T11:11:39;21.00;65.40
2995;DHT22;35277;49.890;8.222;2024-02-21T11:14:11;21.00;65.40
2995;DHT22;35277;49.890;8.222;2024-02-21T11:16:41;21.00;65.40
2995;DHT22;35277;49.890;8.222;2024-02-21T11:19:19;21.00;65.40
2995;DHT22;35277;49.890;8.222;2024-02-21T11:21:47;21.00;65.40
2995;DHT22;35277;49.890;8.222;2024-02-21T11:24:25;21.00;65.40
2995;DHT22;35277;49.890;8.222;2024-02-21T11:26:53;21.00;65.50
2995;DHT22;35277;49.890;8.222;2024-02-21T11:29:25;21.00;65.40
2995;DHT22;35277;49.890;8.222;2024-02-21T11:31:52;21.00;66.30
2995;DHT22;35277;49.890;8.222;2024-02-21T11:34:20;21.00;65.40
2995;DHT22;35277;49.890;8.222;2024-02-21T11:36:49;21.00;65.40
2995;DHT22;35277;49.890;8.222;2024-02-21T11:39:21;21.00;65.40
2995;DHT22;35277;49.890;8.222;2024-02-21T11:42:05;21.00;65.40
2995;DHT22;35277;49.890;8.222;2024-02-21T11:44:36;21.00;65.40
2995;DHT22;35277;49.890;8.222;2024-02-21T11:47:06;21.00;65.40
2995;DHT22;35277;49.890;8.222;2024-02-21T11:49:36;21.00;65.40
2995;DHT22;35277;49.890;8.222;2024-02-21T11:52:05;21.00;65.40
2995;DHT22;35277;49.890;8.222;2024-02-21T11:54:34;21.00;65.40
2995;DHT22;35277;49.890;8.222;2024-02-21T11:57:02;21.00;65.40
2995;DHT22;35277;49.890;8.222;2024-02-21T11:59:30;21.00;65.40
2995;DHT22;35277;49.890;8.222;2024-02-21T12:02:01;21.00;65.40
2995;DHT22;35277;49.890;8.222;2024-02-21T12:04:30;21.00;65.40
2995;DHT22;35277;49.890;8.222;2024-02-21T12:06:59;21.00;65.40
2995;DHT22;35277;49.890;8.222;2024-02-21T12:09:27;21.00;65.40
2995;DHT22;35277;49.890;8.222;2024-02-21T12:11:59;21.00;65.40
2995;DHT22;35277;49.890;8.222;2024-02-21T12:14:28;21.00;65.40
2995;DHT22;35277;49.890;8.222;2024-02-21T12:16:57;21.00;65.40
2995;DHT22;35277;49.890;8.222;2024-02-21T12:19:28;21.00;65.40
2995;DHT22;35277;49.890;8.222;2024-02-21T12:21:56;21.00;65.40
2995;DHT22;35277;49.890;8.222;2024-02-21T12:24:25;20.90;65.30
2995;DHT22;35277;49.890;8.222;2024-02-21T12:26:55;21.00;65.40
2995;DHT22;35277;49.890;8.222;2024-02-21T12:29:24;20.90;65.20
2995;DHT22;35277;49.890;8.222;2024-02-21T12:31:52;21.00;65.40
2995;DHT22;35277;49.890;8.222;2024-02-21T12:34:20;21.00;65.40
2995;DHT22;35277;49.890;8.222;2024-02-21T12:37:05;21.00;65.40
2995;DHT22;35277;49.890;8.222;2024-02-21T12:39:33;20.90;65.30
2995;DHT22;35277;49.890;8.222;2024-02-21T12:42:01;20.90;65.30
2995;DHT22;35277;49.890;8.222;2024-02-21T12:44:29;20.90;65.30
2995;DHT22;35277;49.890;8.222;2024-02-21T12:46:57;20.90;65.30
2995;DHT22;35277;49.890;8.222;2024-02-21T12:49:25;20.90;65.30
2995;DHT22;35277;49.890;8.222;2024-02-21T12:51:56;20.90;65.30
2995;DHT22;35277;49.890;8.222;2024-02-21T12:54:25;20.90;65.30
2995;DHT22;35277;49.890;8.222;2024-02-21T12:56:53;20.90;65.30
2995;DHT22;35277;49.890;8.222;2024-02-21T12:59:20;20.90;65.30
2995;DHT22;35277;49.890;8.222;2024-02-21T13:01:48;20.90;65.30
2995;DHT22;35277;49.890;8.222;2024-02-21T13:04:16;20.90;65.30
2995;DHT22;35277;49.890;8.222;2024-02-21T13:06:44;20.90;65.20
2995;DHT22;35277;49.890;8.222;2024-02-21T13:09:12;20.90;65.30
2995;DHT22;35277;49.890;8.222;2024-02-21T13:11:42;20.90;65.20
2995;DHT22;35277;49.890;8.222;2024-02-21T13:14:11;20.90;65.20
2995;DHT22;35277;49.890;8.222;2024-02-21T13:16:39;20.90;65.30
2995;DHT22;35277;49.890;8.222;2024-02-21T13:19:08;20.90;65.30
2995;DHT22;35277;49.890;8.222;2024-02-21T13:21:36;20.90;65.20
2995;DHT22;35277;49.890;8.222;2024-02-21T13:24:04;20.90;65.30
2995;DHT22;35277;49.890;8.222;2024-02-21T13:26:32;20.90;65.20
2995;DHT22;35277;49.890;8.222;2024-02-21T13:29:01;20.90;65.20
2995;DHT22;35277;49.890;8.222;2024-02-21T13:31:30;20.90;65.20
2995;DHT22;35277;49.890;8.222;2024-02-21T13:33:58;20.90;65.20
2995;DHT22;35277;49.890;8.222;2024-02-21T13:36:26;20.90;65.20
2995;DHT22;35277;49.890;8.222;2024-02-21T13:38:53;20.90;65.30
2995;DHT22;35277;49.890;8.222;2024-02-21T13:41:21;20.90;65.30
2995;DHT22;35277;49.890;8.222;2024-02-21T13:43:50;20.90;65.20
2995;DHT22;35277;49.890;8.222;2024-02-21T13:46:19;20.90;65.30
2995;DHT22;35277;49.890;8.222;2024-02-21T13:48:47;20.90;65.20
2995;DHT22;35277;49.890;8.222;2024-02-21T13:51:15;20.90;65.20
2995;DHT22;35277;49.890;8.222;2024-02-21T13:53:43;20.90;65.20
2995;DHT22;35277;49.890;8.222;2024-02-21T13:56:11;20.90;65.40
2995;DHT22;35277;49.890;8.222;2024-02-21T13:58:39;20.90;65.20
2995;DHT22;35277;49.890;8.222;2024-02-21T14:01:07;20.90;65.20
2995;DHT22;35277;49.890;8.222;2024-02-21T14:03:37;20.90;65.20
2995;DHT22;35277;49.890;8.222;2024-02-21T14:06:05;20.90;65.20
2995;DHT22;35277;49.890;8.222;2024-02-21T14:08:33;20.90;65.20
2995;DHT22;35277;49.890;8.222;2024-02-21T14:11:01;20.90;65.20
2995;DHT22;35277;49.890;8.222;2024-02-21T14:13:29;20.90;65.20
2995;DHT22;35277;49.890;8.222;2024-02-21T14:15:56;20.90;65.30
2995;DHT22;35277;49.890;8.222;2024-02-21T14:18:24;20.90;65.20
2995;DHT22;35277;49.890;8.222;2024-02-21T14:20:54;20.90;65.20
2995;DHT22;35277;49.890;8.222;2024-02-21T14:23:21;20.90;65.20
2995;DHT22;35277;49.890;8.222;2024-02-21T14:25:49;20.90;65.20
2995;DHT22;35277;49.890;8.222;2024-02-21T14:28:17;20.90;65.20
2995;DHT22;35277;49.890;8.222;2024-02-21T14:30:47;20.90;65.20
2995;DHT22;35277;49.890;8.222;2024-02-21T14:33:20;20.90;65.30
2995;DHT22;35277;49.890;8.222;2024-02-21T14:35:48;20.90;65.20
2995;DHT22;35277;49.890;8.222;2024-02-21T14:38:18;20.90;65.20
2995;DHT22;35277;49.890;8.222;2024-02-21T14:40:45;20.90;65.30
2995;DHT22;35277;49.890;8.222;2024-02-21T14:43:13;20.90;65.20
2995;DHT22;35277;49.890;8.222;2024-02-21T14:45:41;20.90;65.20
2995;DHT22;35277;49.890;8.222;2024-02-21T14:48:10;20.90;65.20
2995;DHT22;35277;49.890;8.222;2024-02-21T14:50:38;20.90;65.20
2995;DHT22;35277;49.890;8.222;2024-02-21T14:53:05;20.90;65.20
2995;DHT22;35277;49.890;8.222;2024-02-21T14:55:35;20.90;65.20
2995;DHT22;35277;49.890;8.222;2024-02-21T14:58:05;20.90;65.20
2995;DHT22;35277;49.890;8.222;2024-02-21T15:00:33;20.90;65.20
2995;DHT22;35277;49.890;8.222;2024-02-21T15:03:01;20.90;65.20
2995;DHT22;35277;49.890;8.222;2024-02-21T15:05:29;20.90;65.20
2995;DHT22;35277;49.890;8.222;2024-02-21T15:07:58;20.90;65.20
2995;DHT22;35277;49.890;8.222;2024-02-21T15:10:25;20.90;65.20
2995;DHT22;35277;49.890;8.222;2024-02-21T15:12:55;20.90;65.20
2995;DHT22;35277;49.890;8.222;2024-02-21T15:15:24;20.90;65.60
2995;DHT22;35277;49.890;8.222;2024-02-21T15:17:52;20.80;65.10
2995;DHT22;35277;49.890;8.222;2024-02-21T15:20:20;20.80;65.10
2995;DHT22;35277;49.890;8.222;2024-02-21T15:22:48;20.80;65.10
2995;DHT22;35277;49.890;8.222;2024-02-21T15:25:16;20.80;65.10
2995;DHT22;35277;49.890;8.222;2024-02-21T15:27:45;20.80;65.10
2995;DHT22;35277;49.890;8.222;2024-02-21T15:30:14;20.80;65.10
2995;DHT22;35277;49.890;8.222;2024-02-21T15:32:42;20.80;65.10
2995;DHT22;35277;49.890;8.222;2024-02-21T15:35:11;20.80;65.10
2995;DHT22;35277;49.890;8.222;2024-02-21T15:37:40;20.80;65.10
2995;DHT22;35277;49.890;8.222;2024-02-21T15:40:08;20.80;65.10
2995;DHT22;35277;49.890;8.222;2024-02-21T15:42:36;20.80;65.10
2995;DHT22;35277;49.890;8.222;2024-02-21T15:45:05;20.80;65.20
2995;DHT22;35277;49.890;8.222;2024-02-21T15:47:35;20.80;65.10
2995;DHT22;35277;49.890;8.222;2024-02-21T15:50:03;20.80;65.20
2995;DHT22;35277;49.890;8.222;2024-02-21T15:52:31;20.80;65.10
2995;DHT22;35277;49.890;8.222;2024-02-21T15:54:59;20.80;66.00